createdAt,value
2022-10-22T00:00:47.316Z,9.383079
2022-10-22T00:01:47.291Z,9.383073
2022-10-22T00:02:47.300Z,9.383121
2022-10-22T00:03:47.270Z,9.383129
2022-10-22T00:04:47.269Z,9.383142
2022-10-22T00:05:47.262Z,9.383133
2022-10-22T00:06:47.240Z,9.383122
2022-10-22T00:07:47.234Z,9.383099
2022-10-22T00:08:47.266Z,9.383014
2022-10-22T00:09:47.210Z,9.383062
2022-10-22T00:10:47.210Z,9.383052
2022-10-22T00:11:47.184Z,9.383132
2022-10-22T00:12:47.179Z,9.383037
2022-10-22T00:14:48.161Z,9.383027
2022-10-22T00:15:47.163Z,9.383091
2022-10-22T00:16:47.141Z,9.383094
2022-10-22T00:17:47.137Z,9.383148
2022-10-22T00:18:47.122Z,9.383122
2022-10-22T00:19:47.107Z,9.383096
2022-10-22T00:20:47.114Z,9.383101
2022-10-22T00:21:47.090Z,9.383100
2022-10-22T00:22:47.126Z,9.383117
2022-10-22T00:23:47.075Z,9.383071
2022-10-22T00:24:47.069Z,9.383071
2022-10-22T00:25:47.065Z,9.383101
2022-10-22T00:26:47.040Z,9.383077
2022-10-22T00:27:47.029Z,9.383038
2022-10-22T00:28:47.024Z,9.383040
2022-10-22T00:29:47.008Z,9.383064
2022-10-22T00:30:47.012Z,9.383039
2022-10-22T00:31:47.014Z,9.383075
2022-10-22T00:32:46.986Z,9.383091
2022-10-22T00:33:46.987Z,9.383104
2022-10-22T00:34:46.966Z,9.383173
2022-10-22T00:35:46.970Z,9.383112
2022-10-22T00:36:46.937Z,9.383160
2022-10-22T00:37:46.930Z,9.383144
2022-10-22T00:38:46.920Z,9.383078
2022-10-22T00:39:46.907Z,9.383106
2022-10-22T00:40:46.903Z,9.383097
2022-10-22T00:41:46.885Z,9.383106
2022-10-22T00:42:46.875Z,9.383100
2022-10-22T00:43:46.873Z,9.383108
2022-10-22T00:44:46.853Z,9.383108
2022-10-22T00:45:46.854Z,9.383072
2022-10-22T00:46:46.832Z,9.383066
2022-10-22T00:47:46.822Z,9.383045
2022-10-22T00:48:46.811Z,9.383023
2022-10-22T00:49:46.815Z,9.383064
2022-10-22T00:50:46.806Z,9.383072
2022-10-22T00:51:46.787Z,9.383110
2022-10-22T00:52:46.779Z,9.383108
2022-10-22T00:53:46.765Z,9.383074
2022-10-22T00:54:46.757Z,9.383044
2022-10-22T00:55:46.756Z,9.383103
2022-10-22T00:56:46.739Z,9.383183
2022-10-22T00:57:46.723Z,9.383087
2022-10-22T00:58:46.715Z,9.383094
2022-10-22T00:59:46.706Z,9.383053
2022-10-22T01:00:46.785Z,9.383065
2022-10-22T01:01:46.691Z,9.383005
2022-10-22T01:02:46.674Z,9.383038
2022-10-22T01:03:46.666Z,9.383090
2022-10-22T01:04:46.651Z,9.383167
2022-10-22T01:05:46.654Z,9.383089
2022-10-22T01:06:46.631Z,9.383033
2022-10-22T01:07:46.621Z,9.382985
2022-10-22T01:08:46.652Z,9.383072
2022-10-22T01:09:46.604Z,9.383090
2022-10-22T01:10:46.601Z,9.383101
2022-10-22T01:11:46.583Z,9.383114
2022-10-22T01:12:46.575Z,9.383034
2022-10-22T01:13:46.567Z,9.382998
2022-10-22T01:14:46.557Z,9.383147
2022-10-22T01:15:46.555Z,9.383088
2022-10-22T01:16:46.534Z,9.383153
2022-10-22T01:17:46.521Z,9.383024
2022-10-22T01:18:46.516Z,9.383041
2022-10-22T01:19:46.509Z,9.383082
2022-10-22T01:20:46.507Z,9.383096
2022-10-22T01:21:46.485Z,9.383094
2022-10-22T01:22:46.475Z,9.382959
2022-10-22T01:23:46.474Z,9.383028
2022-10-22T01:24:46.454Z,9.383037
2022-10-22T01:25:46.450Z,9.383140
2022-10-22T01:26:46.433Z,9.383016
2022-10-22T01:27:46.422Z,9.383059
2022-10-22T01:28:46.414Z,9.383119
2022-10-22T01:29:46.406Z,9.383005
2022-10-22T01:30:46.398Z,9.383025
2022-10-22T01:31:46.383Z,9.383017
2022-10-22T01:32:46.368Z,9.382998
2022-10-22T01:33:46.358Z,9.383060
2022-10-22T01:34:46.346Z,9.383053
2022-10-22T01:35:46.360Z,9.383017
2022-10-22T01:36:46.324Z,9.382991
2022-10-22T01:37:46.318Z,9.382936
2022-10-22T01:38:46.307Z,9.382894
2022-10-22T01:39:46.291Z,9.383058
2022-10-22T01:40:46.294Z,9.383085
2022-10-22T01:41:46.283Z,9.383105
2022-10-22T01:42:46.266Z,9.383080
2022-10-22T01:43:46.262Z,9.382959
2022-10-22T01:44:46.248Z,9.382966
2022-10-22T01:45:46.250Z,9.383058
2022-10-22T01:46:46.223Z,9.383133
2022-10-22T01:47:46.223Z,9.383142
2022-10-22T01:48:46.238Z,9.383021
2022-10-22T01:49:46.194Z,9.383037
2022-10-22T01:50:46.205Z,9.382970
2022-10-22T01:51:46.175Z,9.382964
2022-10-22T01:52:46.164Z,9.383052
2022-10-22T01:53:46.165Z,9.383061
2022-10-22T01:54:46.144Z,9.383142
2022-10-22T01:55:46.137Z,9.383144
2022-10-22T01:56:46.136Z,9.383029
2022-10-22T01:57:46.115Z,9.383116
2022-10-22T01:58:46.103Z,9.383147
2022-10-22T01:59:46.093Z,9.383035
2022-10-22T02:00:46.109Z,9.383043
2022-10-22T02:01:46.080Z,9.383043
2022-10-22T02:03:46.079Z,9.383016
2022-10-22T02:04:46.037Z,9.383023
2022-10-22T02:05:46.033Z,9.383059
2022-10-22T02:06:46.033Z,9.383065
2022-10-22T02:07:46.011Z,9.383100
2022-10-22T02:08:46.037Z,9.383044
2022-10-22T02:09:46.014Z,9.383071
2022-10-22T02:10:45.982Z,9.383113
2022-10-22T02:11:45.987Z,9.382945
2022-10-22T02:12:45.962Z,9.382937
2022-10-22T02:13:45.962Z,9.383024
2022-10-22T02:14:45.941Z,9.383054
2022-10-22T02:15:45.931Z,9.383016
2022-10-22T02:16:45.928Z,9.383000
2022-10-22T02:17:45.906Z,9.383068
2022-10-22T02:18:45.896Z,9.383064
2022-10-22T02:19:45.889Z,9.383092
2022-10-22T02:20:45.876Z,9.383052
2022-10-22T02:21:45.875Z,9.383145
2022-10-22T02:22:45.859Z,9.383063
2022-10-22T02:23:45.843Z,9.383039
2022-10-22T02:24:45.837Z,9.383088
2022-10-22T02:25:45.827Z,9.383090
2022-10-22T02:26:45.828Z,9.383083
2022-10-22T02:27:45.806Z,9.383019
2022-10-22T02:28:45.797Z,9.382989
2022-10-22T02:29:45.787Z,9.383023
2022-10-22T02:30:45.789Z,9.382970
2022-10-22T02:31:45.767Z,9.383047
2022-10-22T02:32:45.753Z,9.383123
2022-10-22T02:33:45.756Z,9.383128
2022-10-22T02:34:45.737Z,9.383150
2022-10-22T02:35:45.735Z,9.383125
2022-10-22T02:36:49.605Z,9.383115
2022-10-22T02:37:45.710Z,9.383088
2022-10-22T02:38:45.702Z,9.383067
2022-10-22T02:39:45.694Z,9.383161
2022-10-22T02:40:45.677Z,9.383073
2022-10-22T02:41:45.673Z,9.383033
2022-10-22T02:42:45.659Z,9.383013
2022-10-22T02:43:45.652Z,9.382974
2022-10-22T02:44:45.641Z,9.383133
2022-10-22T02:45:45.629Z,9.383001
2022-10-22T02:46:45.627Z,9.383033
2022-10-22T02:47:45.609Z,9.382995
2022-10-22T02:48:45.596Z,9.382997
2022-10-22T02:49:45.586Z,9.383112
2022-10-22T02:50:45.580Z,9.383000
2022-10-22T02:51:45.579Z,9.383070
2022-10-22T02:52:45.562Z,9.383041
2022-10-22T02:53:45.556Z,9.383007
2022-10-22T02:54:45.538Z,9.382943
2022-10-22T02:55:45.536Z,9.383009
2022-10-22T02:56:45.530Z,9.383152
2022-10-22T02:57:45.515Z,9.383036
2022-10-22T02:58:45.502Z,9.383057
2022-10-22T02:59:45.488Z,9.383027
2022-10-22T03:00:45.530Z,9.383054
2022-10-22T03:01:45.482Z,9.383018
2022-10-22T03:02:45.462Z,9.383020
2022-10-22T03:03:45.450Z,9.383015
2022-10-22T03:04:45.440Z,9.383085
2022-10-22T03:05:45.429Z,9.383055
2022-10-22T03:06:45.426Z,9.383017
2022-10-22T03:07:45.409Z,9.382965
2022-10-22T03:08:45.465Z,9.383007
2022-10-22T03:09:45.385Z,9.383010
2022-10-22T03:10:45.374Z,9.383049
2022-10-22T03:11:45.367Z,9.383109
2022-10-22T03:12:46.357Z,9.383184
2022-10-22T03:13:45.348Z,9.383126
2022-10-22T03:14:45.337Z,9.383102
2022-10-22T03:15:45.329Z,9.383083
2022-10-22T03:16:45.329Z,9.383045
2022-10-22T03:17:45.308Z,9.383115
2022-10-22T03:18:45.298Z,9.383104
2022-10-22T03:19:45.286Z,9.383018
2022-10-22T03:20:45.274Z,9.383044
2022-10-22T03:21:45.278Z,9.383064
2022-10-22T03:22:45.254Z,9.383067
2022-10-22T03:23:45.243Z,9.383114
2022-10-22T03:24:45.237Z,9.383072
2022-10-22T03:25:45.227Z,9.383148
2022-10-22T03:26:45.229Z,9.383106
2022-10-22T03:27:45.202Z,9.383051
2022-10-22T03:28:45.197Z,9.383126
2022-10-22T03:29:45.182Z,9.383097
2022-10-22T03:30:45.170Z,9.383114
2022-10-22T03:31:45.177Z,9.383030
2022-10-22T03:32:45.151Z,9.383079
2022-10-22T03:33:45.150Z,9.383080
2022-10-22T03:34:45.136Z,9.383044
2022-10-22T03:35:45.128Z,9.383051
2022-10-22T03:36:45.126Z,9.383100
2022-10-22T03:37:45.106Z,9.383079
2022-10-22T03:38:45.095Z,9.383102
2022-10-22T03:39:45.086Z,9.383107
2022-10-22T03:40:45.073Z,9.383077
2022-10-22T03:41:45.074Z,9.383071
2022-10-22T03:42:45.055Z,9.383055
2022-10-22T03:43:45.044Z,9.382978
2022-10-22T03:44:45.035Z,9.382879
2022-10-22T03:45:45.023Z,9.383015
2022-10-22T03:46:45.028Z,9.383057
2022-10-22T03:47:45.006Z,9.383023
2022-10-22T03:48:44.988Z,9.382952
2022-10-22T03:49:44.979Z,9.383020
2022-10-22T03:50:44.970Z,9.383088
2022-10-22T03:51:44.968Z,9.383152
2022-10-22T03:52:44.951Z,9.383033
2022-10-22T03:53:44.944Z,9.383047
2022-10-22T03:54:44.935Z,9.383009
2022-10-22T03:55:44.920Z,9.383025
2022-10-22T03:56:44.920Z,9.383182
2022-10-22T03:57:44.900Z,9.383140
2022-10-22T03:58:44.889Z,9.383091
2022-10-22T03:59:44.869Z,9.383003
2022-10-22T04:00:45.894Z,9.383090
2022-10-22T04:01:44.865Z,9.383078
2022-10-22T04:02:44.849Z,9.383083
2022-10-22T04:03:44.832Z,9.383086
2022-10-22T04:04:44.828Z,9.383059
2022-10-22T04:05:44.812Z,9.383023
2022-10-22T04:06:44.812Z,9.383064
2022-10-22T04:07:44.788Z,9.383073
2022-10-22T04:08:44.802Z,9.383060
2022-10-22T04:09:44.772Z,9.383075
2022-10-22T04:10:44.758Z,9.383113
2022-10-22T04:11:44.760Z,9.383100
2022-10-22T04:12:44.740Z,9.383087
2022-10-22T04:13:44.725Z,9.383140
2022-10-22T04:14:44.713Z,9.383112
2022-10-22T04:16:44.710Z,9.383144
2022-10-22T04:17:44.686Z,9.383017
2022-10-22T04:18:44.674Z,9.383073
2022-10-22T04:19:44.665Z,9.383094
2022-10-22T04:20:44.655Z,9.383070
2022-10-22T04:21:44.664Z,9.382964
2022-10-22T04:22:44.637Z,9.383020
2022-10-22T04:23:44.622Z,9.383058
2022-10-22T04:24:44.664Z,9.383182
2022-10-22T04:25:44.608Z,9.383150
2022-10-22T04:26:44.602Z,9.383073
2022-10-22T04:27:44.595Z,9.383122
2022-10-22T04:28:44.572Z,9.382966
2022-10-22T04:29:44.566Z,9.382902
2022-10-22T04:30:44.553Z,9.383081
2022-10-22T04:31:44.603Z,9.383113
2022-10-22T04:32:44.531Z,9.383136
2022-10-22T04:33:44.521Z,9.383144
2022-10-22T04:34:44.517Z,9.383141
2022-10-22T04:35:44.503Z,9.383108
2022-10-22T04:36:44.503Z,9.383181
2022-10-22T04:37:44.482Z,9.383183
2022-10-22T04:38:44.474Z,9.383155
2022-10-22T04:39:44.463Z,9.383184
2022-10-22T04:40:44.454Z,9.383221
2022-10-22T04:41:44.456Z,9.383137
2022-10-22T04:42:44.436Z,9.383108
2022-10-22T04:43:44.424Z,9.383121
2022-10-22T04:44:44.412Z,9.383074
2022-10-22T04:45:44.471Z,9.383175
2022-10-22T04:46:44.426Z,9.383207
2022-10-22T04:47:44.394Z,9.383187
2022-10-22T04:48:44.375Z,9.383137
2022-10-22T04:49:44.383Z,9.383149
2022-10-22T04:50:44.354Z,9.383088
2022-10-22T04:51:44.372Z,9.383081
2022-10-22T04:52:44.334Z,9.383015
2022-10-22T04:53:44.320Z,9.382970
2022-10-22T04:54:44.318Z,9.383071
2022-10-22T04:55:44.302Z,9.383190
2022-10-22T04:56:44.305Z,9.383107
2022-10-22T04:57:44.284Z,9.383163
2022-10-22T04:58:44.275Z,9.383146
2022-10-22T04:59:44.267Z,9.383193
2022-10-22T05:00:44.292Z,9.383094
2022-10-22T05:01:44.258Z,9.383062
2022-10-22T05:02:44.231Z,9.383085
2022-10-22T05:03:44.230Z,9.383067
2022-10-22T05:04:44.212Z,9.383099
2022-10-22T05:05:44.202Z,9.383104
2022-10-22T05:06:44.206Z,9.383136
2022-10-22T05:07:44.417Z,9.383127
2022-10-22T05:08:44.259Z,9.383158
2022-10-22T05:09:44.157Z,9.383112
2022-10-22T05:10:44.147Z,9.383058
2022-10-22T05:11:44.149Z,9.383007
2022-10-22T05:12:44.125Z,9.383013
2022-10-22T05:13:44.117Z,9.383062
2022-10-22T05:15:16.020Z,9.383073
2022-10-22T05:15:44.101Z,9.383140
2022-10-22T05:16:44.096Z,9.383142
2022-10-22T05:17:44.077Z,9.383089
2022-10-22T05:18:44.067Z,9.383096
2022-10-22T05:19:44.119Z,9.383060
2022-10-22T05:20:44.052Z,9.383070
2022-10-22T05:21:44.053Z,9.383088
2022-10-22T05:22:44.030Z,9.383144
2022-10-22T05:23:44.017Z,9.383189
2022-10-22T05:24:44.005Z,9.383220
2022-10-22T05:25:43.988Z,9.383135
2022-10-22T05:26:43.992Z,9.383163
2022-10-22T05:27:44.152Z,9.383191
2022-10-22T05:28:43.965Z,9.383089
2022-10-22T05:29:43.953Z,9.382977
2022-10-22T05:30:43.946Z,9.382988
2022-10-22T05:31:43.945Z,9.382990
2022-10-22T05:32:43.921Z,9.383011
2022-10-22T05:33:43.927Z,9.383074
2022-10-22T05:34:43.902Z,9.383073
2022-10-22T05:35:46.746Z,9.383024
2022-10-22T05:36:44.893Z,9.383049
2022-10-22T05:37:44.091Z,9.383046
2022-10-22T05:38:43.863Z,9.383080
2022-10-22T05:39:43.852Z,9.383105
2022-10-22T05:40:43.845Z,9.383064
2022-10-22T05:41:43.951Z,9.383008
2022-10-22T05:42:43.817Z,9.383003
2022-10-22T05:43:43.807Z,9.383044
2022-10-22T05:44:43.799Z,9.383052
2022-10-22T05:45:43.786Z,9.383064
2022-10-22T05:46:43.786Z,9.383025
2022-10-22T05:47:43.761Z,9.383025
2022-10-22T05:48:43.777Z,9.383038
2022-10-22T05:49:43.744Z,9.383056
2022-10-22T05:50:43.738Z,9.383096
2022-10-22T05:51:43.737Z,9.383091
2022-10-22T05:52:43.805Z,9.383151
2022-10-22T05:53:43.704Z,9.383146
2022-10-22T05:54:43.716Z,9.383081
2022-10-22T05:55:43.679Z,9.383067
2022-10-22T05:56:43.680Z,9.383028
2022-10-22T05:57:43.660Z,9.383108
2022-10-22T05:58:43.653Z,9.383097
2022-10-22T05:59:43.639Z,9.383083
2022-10-22T06:00:43.634Z,9.383151
2022-10-22T06:01:43.634Z,9.383063
2022-10-22T06:02:43.617Z,9.382995
2022-10-22T06:03:43.600Z,9.383044
2022-10-22T06:04:43.598Z,9.383016
2022-10-22T06:05:43.580Z,9.383048
2022-10-22T06:06:43.584Z,9.383098
2022-10-22T06:07:43.564Z,9.383127
2022-10-22T06:08:43.579Z,9.383090
2022-10-22T06:09:43.543Z,9.382990
2022-10-22T06:10:43.557Z,9.382891
2022-10-22T06:11:43.538Z,9.383059
2022-10-22T06:12:43.566Z,9.383046
2022-10-22T06:13:43.498Z,9.383059
2022-10-22T06:14:43.490Z,9.383109
2022-10-22T06:15:43.479Z,9.383134
2022-10-22T06:16:43.486Z,9.383207
2022-10-22T06:17:43.459Z,9.383132
2022-10-22T06:18:43.449Z,9.383083
2022-10-22T06:19:43.439Z,9.383080
2022-10-22T06:20:43.432Z,9.383110
2022-10-22T06:21:43.428Z,9.383068
2022-10-22T06:22:43.664Z,9.383041
2022-10-22T06:23:43.399Z,9.383016
2022-10-22T06:24:45.184Z,9.383048
2022-10-22T06:25:43.382Z,9.382994
2022-10-22T06:26:43.378Z,9.383000
2022-10-22T06:27:43.355Z,9.383035
2022-10-22T06:28:43.345Z,9.383042
2022-10-22T06:29:43.338Z,9.383071
2022-10-22T06:30:45.869Z,9.383075
2022-10-22T06:31:43.323Z,9.383113
2022-10-22T06:32:43.373Z,9.383169
2022-10-22T06:33:43.294Z,9.383167
2022-10-22T06:34:43.283Z,9.383141
2022-10-22T06:35:43.271Z,9.383139
2022-10-22T06:36:43.280Z,9.383111
2022-10-22T06:37:43.482Z,9.383104
2022-10-22T06:38:43.234Z,9.383118
2022-10-22T06:39:43.230Z,9.383082
2022-10-22T06:40:43.216Z,9.383146
2022-10-22T06:41:43.218Z,9.383112
2022-10-22T06:42:43.394Z,9.383090
2022-10-22T06:43:43.186Z,9.383120
2022-10-22T06:44:43.172Z,9.383052
2022-10-22T06:45:43.164Z,9.383082
2022-10-22T06:46:43.637Z,9.383094
2022-10-22T06:47:44.295Z,9.383190
2022-10-22T06:48:43.131Z,9.383198
2022-10-22T06:49:43.123Z,9.383154
2022-10-22T06:50:43.129Z,9.383175
2022-10-22T06:51:43.120Z,9.383191
2022-10-22T06:52:43.118Z,9.383133
2022-10-22T06:53:43.088Z,9.383039
2022-10-22T06:54:43.071Z,9.383176
2022-10-22T06:55:43.068Z,9.383227
2022-10-22T06:56:43.064Z,9.383112
2022-10-22T06:57:43.495Z,9.383016
2022-10-22T06:58:43.033Z,9.383090
2022-10-22T06:59:43.021Z,9.383084
2022-10-22T07:00:43.012Z,9.383101
2022-10-22T07:01:43.059Z,9.383124
2022-10-22T07:02:43.463Z,9.383105
2022-10-22T07:03:42.987Z,9.383135
2022-10-22T07:04:42.971Z,9.383069
2022-10-22T07:05:42.963Z,9.383093
2022-10-22T07:06:42.961Z,9.383107
2022-10-22T07:07:42.940Z,9.383171
2022-10-22T07:08:42.969Z,9.383141
2022-10-22T07:09:42.914Z,9.383084
2022-10-22T07:10:42.901Z,9.383118
2022-10-22T07:11:42.904Z,9.383125
2022-10-22T07:12:43.478Z,9.383160
2022-10-22T07:13:42.875Z,9.383151
2022-10-22T07:14:42.864Z,9.383151
2022-10-22T07:15:42.856Z,9.383121
2022-10-22T07:16:42.853Z,9.383162
2022-10-22T07:17:42.835Z,9.383182
2022-10-22T07:18:42.815Z,9.383137
2022-10-22T07:19:42.809Z,9.383184
2022-10-22T07:20:42.799Z,9.383239
2022-10-22T07:21:42.802Z,9.383248
2022-10-22T07:22:43.198Z,9.383192
2022-10-22T07:23:42.767Z,9.383239
2022-10-22T07:24:42.761Z,9.383200
2022-10-22T07:25:42.742Z,9.383137
2022-10-22T07:26:42.748Z,9.383145
2022-10-22T07:27:42.955Z,9.383167
2022-10-22T07:28:42.719Z,9.383126
2022-10-22T07:29:42.703Z,9.383124
2022-10-22T07:30:42.698Z,9.383146
2022-10-22T07:31:42.694Z,9.383220
2022-10-22T07:32:42.673Z,9.383142
2022-10-22T07:33:42.682Z,9.383092
2022-10-22T07:34:43.920Z,9.383149
2022-10-22T07:35:42.647Z,9.383085
2022-10-22T07:36:42.638Z,9.383076
2022-10-22T07:37:42.889Z,9.383101
2022-10-22T07:38:42.609Z,9.383166
2022-10-22T07:39:42.608Z,9.383162
2022-10-22T07:40:42.590Z,9.383180
2022-10-22T07:41:42.596Z,9.383109
2022-10-22T07:42:42.578Z,9.383036
2022-10-22T07:43:42.563Z,9.383266
2022-10-22T07:44:42.551Z,9.383345
2022-10-22T07:45:42.542Z,9.383215
2022-10-22T07:46:44.415Z,9.383246
2022-10-22T07:47:43.832Z,9.383248
2022-10-22T07:48:42.511Z,9.383261
2022-10-22T07:49:42.507Z,9.383231
2022-10-22T07:51:42.578Z,9.383058
2022-10-22T07:52:42.856Z,9.383059
2022-10-22T07:53:42.463Z,9.383211
2022-10-22T07:54:42.450Z,9.383203
2022-10-22T07:55:42.440Z,9.383161
2022-10-22T07:56:42.443Z,9.383151
2022-10-22T07:57:42.422Z,9.383106
2022-10-22T07:58:42.416Z,9.383077
2022-10-22T07:59:42.398Z,9.383108
2022-10-22T08:00:42.391Z,9.383146
2022-10-22T08:01:42.458Z,9.383300
2022-10-22T08:02:42.796Z,9.383312
2022-10-22T08:03:42.359Z,9.383251
2022-10-22T08:04:42.346Z,9.383221
2022-10-22T08:05:42.334Z,9.383036
2022-10-22T08:06:45.748Z,9.383133
2022-10-22T08:07:44.320Z,9.383164
2022-10-22T08:08:42.340Z,9.383174
2022-10-22T08:09:42.292Z,9.383133
2022-10-22T08:10:42.286Z,9.383081
2022-10-22T08:11:42.281Z,9.383158
2022-10-22T08:12:42.505Z,9.383132
2022-10-22T08:13:45.429Z,9.383145
2022-10-22T08:14:43.245Z,9.383115
2022-10-22T08:15:42.262Z,9.383058
2022-10-22T08:16:42.237Z,9.383144
2022-10-22T08:17:42.559Z,9.383034
2022-10-22T08:18:42.203Z,9.383044
2022-10-22T08:19:42.192Z,9.383050
2022-10-22T08:20:42.180Z,9.383047
2022-10-22T08:21:42.179Z,9.383064
2022-10-22T08:22:42.156Z,9.383118
2022-10-22T08:23:42.140Z,9.383110
2022-10-22T08:24:43.138Z,9.383120
2022-10-22T08:25:42.128Z,9.383116
2022-10-22T08:26:42.131Z,9.383023
2022-10-22T08:27:42.619Z,9.383054
2022-10-22T08:28:42.098Z,9.383126
2022-10-22T08:29:42.084Z,9.383157
2022-10-22T08:30:42.080Z,9.383178
2022-10-22T08:31:42.078Z,9.383199
2022-10-22T08:32:42.067Z,9.383210
2022-10-22T08:33:42.048Z,9.383145
2022-10-22T08:34:42.037Z,9.383129
2022-10-22T08:35:42.026Z,9.383135
2022-10-22T08:36:42.027Z,9.383086
2022-10-22T08:37:42.326Z,9.383073
2022-10-22T08:38:41.994Z,9.383142
2022-10-22T08:39:41.989Z,9.383065
2022-10-22T08:40:41.999Z,9.383003
2022-10-22T08:41:41.974Z,9.383037
2022-10-22T08:42:42.215Z,9.383102
2022-10-22T08:43:41.943Z,9.383063
2022-10-22T08:44:41.932Z,9.383114
2022-10-22T08:45:41.924Z,9.382990
2022-10-22T08:46:41.943Z,9.383078
2022-10-22T08:47:41.904Z,9.383049
2022-10-22T08:48:41.896Z,9.383076
2022-10-22T08:49:42.242Z,9.383173
2022-10-22T08:50:41.872Z,9.383208
2022-10-22T08:51:41.876Z,9.383166
2022-10-22T08:52:42.364Z,9.383138
2022-10-22T08:53:41.844Z,9.383135
2022-10-22T08:54:41.832Z,9.383152
2022-10-22T08:55:41.823Z,9.383112
2022-10-22T08:56:41.827Z,9.383120
2022-10-22T08:57:41.801Z,9.383128
2022-10-22T08:58:41.793Z,9.383134
2022-10-22T08:59:41.784Z,9.383095
2022-10-22T09:00:41.779Z,9.383064
2022-10-22T09:01:41.772Z,9.383074
2022-10-22T09:02:42.233Z,9.383094
2022-10-22T09:03:41.744Z,9.383145
2022-10-22T09:04:41.731Z,9.383164
2022-10-22T09:05:41.789Z,9.383161
2022-10-22T09:06:41.719Z,9.383187
2022-10-22T09:07:42.014Z,9.383155
2022-10-22T09:08:41.737Z,9.383138
2022-10-22T09:09:41.674Z,9.383121
2022-10-22T09:10:41.672Z,9.383072
2022-10-22T09:11:41.673Z,9.383102
2022-10-22T09:12:41.654Z,9.383076
2022-10-22T09:13:41.645Z,9.383081
2022-10-22T09:14:41.635Z,9.383102
2022-10-22T09:15:43.769Z,9.383111
2022-10-22T09:16:42.622Z,9.383081
2022-10-22T09:17:41.876Z,9.383091
2022-10-22T09:18:41.595Z,9.383154
2022-10-22T09:19:41.584Z,9.383030
2022-10-22T09:20:41.579Z,9.383066
2022-10-22T09:21:41.574Z,9.383100
2022-10-22T09:22:41.552Z,9.383057
2022-10-22T09:23:41.541Z,9.383070
2022-10-22T09:24:41.533Z,9.383056
2022-10-22T09:25:41.520Z,9.383161
2022-10-22T09:26:41.522Z,9.383111
2022-10-22T09:27:41.852Z,9.383136
2022-10-22T09:28:41.494Z,9.383154
2022-10-22T09:29:41.482Z,9.383113
2022-10-22T09:30:41.473Z,9.383112
2022-10-22T09:31:41.477Z,9.383072
2022-10-22T09:32:41.767Z,9.383127
2022-10-22T09:33:41.465Z,9.383107
2022-10-22T09:34:41.430Z,9.383067
2022-10-22T09:35:41.421Z,9.383109
2022-10-22T09:36:41.417Z,9.383100
2022-10-22T09:37:41.395Z,9.383109
2022-10-22T09:38:41.384Z,9.383117
2022-10-22T09:39:41.377Z,9.383159
2022-10-22T09:40:41.365Z,9.383151
2022-10-22T09:41:41.356Z,9.383177
2022-10-22T09:42:41.632Z,9.383041
2022-10-22T09:43:41.339Z,9.383101
2022-10-22T09:44:44.911Z,9.383123
2022-10-22T09:45:43.300Z,9.383145
2022-10-22T09:46:42.304Z,9.383131
2022-10-22T09:47:43.613Z,9.383117
2022-10-22T09:48:43.287Z,9.383110
2022-10-22T09:49:41.272Z,9.383124
2022-10-22T09:50:41.264Z,9.383153
2022-10-22T09:51:41.252Z,9.383128
2022-10-22T09:52:41.395Z,9.383154
2022-10-22T09:53:41.225Z,9.383187
2022-10-22T09:54:41.226Z,9.383157
2022-10-22T09:55:41.214Z,9.383124
2022-10-22T09:56:41.203Z,9.383132
2022-10-22T09:57:43.690Z,9.383129
2022-10-22T09:58:41.180Z,9.383206
2022-10-22T09:59:41.197Z,9.383203
2022-10-22T10:00:41.160Z,9.383170
2022-10-22T10:01:41.159Z,9.383124
2022-10-22T10:02:41.139Z,9.383152
2022-10-22T10:03:41.128Z,9.383040
2022-10-22T10:04:41.126Z,9.383063
2022-10-22T10:05:41.111Z,9.383105
2022-10-22T10:06:41.120Z,9.383113
2022-10-22T10:07:41.334Z,9.383116
2022-10-22T10:08:41.115Z,9.383114
2022-10-22T10:09:41.076Z,9.383112
2022-10-22T10:10:41.067Z,9.383143
2022-10-22T10:11:41.070Z,9.383115
2022-10-22T10:12:41.085Z,9.383101
2022-10-22T10:13:41.045Z,9.383094
2022-10-22T10:14:41.026Z,9.383134
2022-10-22T10:15:41.012Z,9.383072
2022-10-22T10:16:41.016Z,9.383163
2022-10-22T10:17:41.325Z,9.383142
2022-10-22T10:18:40.986Z,9.383072
2022-10-22T10:19:40.980Z,9.383110
2022-10-22T10:20:40.969Z,9.383020
2022-10-22T10:21:40.972Z,9.383043
2022-10-22T10:22:41.099Z,9.383095
2022-10-22T10:23:40.936Z,9.383147
2022-10-22T10:24:40.925Z,9.383052
2022-10-22T10:25:40.916Z,9.383110
2022-10-22T10:26:40.908Z,9.383083
2022-10-22T10:27:40.910Z,9.383102
2022-10-22T10:28:40.888Z,9.383139
2022-10-22T10:29:40.880Z,9.383147
2022-10-22T10:30:40.994Z,9.383209
2022-10-22T10:31:40.872Z,9.383155
2022-10-22T10:32:41.049Z,9.383132
2022-10-22T10:33:40.839Z,9.383172
2022-10-22T10:34:40.830Z,9.383166
2022-10-22T10:35:40.818Z,9.383180
2022-10-22T10:36:40.807Z,9.383175
2022-10-22T10:37:40.815Z,9.383126
2022-10-22T10:38:40.793Z,9.383100
2022-10-22T10:39:40.782Z,9.383107
2022-10-22T10:40:40.770Z,9.383108
2022-10-22T10:41:40.759Z,9.383148
2022-10-22T10:42:40.974Z,9.383148
2022-10-22T10:43:40.735Z,9.383207
2022-10-22T10:44:40.731Z,9.383212
2022-10-22T10:45:40.721Z,9.383138
2022-10-22T10:46:40.709Z,9.383185
2022-10-22T10:47:40.922Z,9.383275
2022-10-22T10:48:40.690Z,9.383163
2022-10-22T10:49:40.679Z,9.382996
2022-10-22T10:50:40.677Z,9.383021
2022-10-22T10:51:40.673Z,9.383124
2022-10-22T10:52:40.653Z,9.383151
2022-10-22T10:53:40.640Z,9.383123
2022-10-22T10:54:40.652Z,9.383234
2022-10-22T10:55:40.624Z,9.383162
2022-10-22T10:56:40.619Z,9.383163
2022-10-22T10:57:40.957Z,9.383245
2022-10-22T10:58:40.594Z,9.383173
2022-10-22T10:59:40.586Z,9.383136
2022-10-22T11:00:40.575Z,9.383134
2022-10-22T11:01:40.639Z,9.383049
2022-10-22T11:02:41.552Z,9.383090
2022-10-22T11:03:40.548Z,9.383045
2022-10-22T11:04:40.532Z,9.383092
2022-10-22T11:05:40.533Z,9.382995
2022-10-22T11:06:40.512Z,9.383072
2022-10-22T11:07:40.506Z,9.383042
2022-10-22T11:08:40.535Z,9.383041
2022-10-22T11:09:40.481Z,9.383089
2022-10-22T11:10:40.482Z,9.383088
2022-10-22T11:11:40.465Z,9.383026
2022-10-22T11:12:40.767Z,9.383166
2022-10-22T11:13:40.445Z,9.383115
2022-10-22T11:14:40.456Z,9.383140
2022-10-22T11:16:12.342Z,9.383146
2022-10-22T11:16:40.414Z,9.383122
2022-10-22T11:17:40.402Z,9.383195
2022-10-22T11:18:40.395Z,9.383144
2022-10-22T11:19:50.649Z,9.383166
2022-10-22T11:20:42.400Z,9.383167
2022-10-22T11:21:40.371Z,9.383168
2022-10-22T11:22:50.498Z,9.383166
2022-10-22T11:23:42.349Z,9.383138
2022-10-22T11:24:40.340Z,9.383165
2022-10-22T11:25:40.351Z,9.383173
2022-10-22T11:26:40.322Z,9.383178
2022-10-22T11:27:40.651Z,9.383115
2022-10-22T11:28:40.303Z,9.383155
2022-10-22T11:29:40.292Z,9.383157
2022-10-22T11:30:40.281Z,9.383129
2022-10-22T11:31:40.280Z,9.383108
2022-10-22T11:32:40.644Z,9.383158
2022-10-22T11:33:40.283Z,9.383162
2022-10-22T11:34:40.245Z,9.383124
2022-10-22T11:35:40.248Z,9.383101
2022-10-22T11:36:40.223Z,9.383121
2022-10-22T11:37:40.518Z,9.383202
2022-10-22T11:38:40.207Z,9.383182
2022-10-22T11:39:40.192Z,9.383099
2022-10-22T11:40:40.194Z,9.383141
2022-10-22T11:41:40.169Z,9.383178
2022-10-22T11:42:40.160Z,9.383121
2022-10-22T11:43:40.149Z,9.383141
2022-10-22T11:44:40.185Z,9.383158
2022-10-22T11:45:40.141Z,9.383088
2022-10-22T11:46:40.122Z,9.383117
2022-10-22T11:47:40.498Z,9.383129
2022-10-22T11:48:40.104Z,9.383041